Time;durP1;ratioP1;P1;durP2;ratioP2;P2;SDS_P1;SDS_P2;PMS_P1;PMS_P2;Temp;Humidity;BMP_temperature;BMP_pressure;BME280_temperature;BME280_humidity;BME280_pressure;Samples;Min_cycle;Max_cycle;Signal;HPM_P1;HPM_P2
2022/08/23 00:01:15;;;;;;;0.50;0.50;;;15.30;1.00;;;;;;5031901;28;20275;-75
2022/08/23 00:03:42;;;;;;;0.40;0.40;;;15.20;15.80;;;;;;5031122;28;20212;-75
2022/08/23 00:06:09;;;;;;;0.40;0.40;;;15.30;1.00;;;;;;5032240;28;20180;-75
2022/08/23 00:08:36;;;;;;;0.40;0.40;;;15.30;1.00;;;;;;5032026;28;20306;-75
2022/08/23 00:11:03;;;;;;;0.40;0.40;;;15.20;1.00;;;;;;5015688;28;20321;-74
2022/08/23 00:13:28;;;;;;;0.40;0.40;;;15.10;14.50;;;;;;5030387;28;20206;-75
2022/08/23 00:15:54;;;;;;;0.40;0.40;;;15.00;43.10;;;;;;5032193;28;20743;-75
2022/08/23 00:18:20;;;;;;;0.40;0.40;;;15.10;19.20;;;;;;5032387;28;20672;-75
2022/08/23 00:20:46;;;;;;;0.50;0.50;;;15.10;1.00;;;;;;5031626;28;20180;-75
2022/08/23 00:23:12;;;;;;;0.47;0.47;;;15.10;1.00;;;;;;5030295;28;20207;-76
2022/08/23 00:25:38;;;;;;;0.50;0.50;;;15.20;1.00;;;;;;5032061;28;20267;-75
2022/08/23 00:28:04;;;;;;;0.40;0.40;;;15.10;2.70;;;;;;5032054;28;20211;-75
2022/08/23 00:30:30;;;;;;;0.33;0.33;;;15.10;1.00;;;;;;5031750;28;20184;-75
2022/08/23 00:32:56;;;;;;;0.40;0.40;;;15.00;1.00;;;;;;5029367;28;20293;-75
2022/08/23 00:35:22;;;;;;;0.53;0.53;;;14.90;1.00;;;;;;5031394;28;20209;-75
2022/08/23 00:37:48;;;;;;;0.40;0.40;;;14.80;15.40;;;;;;5031921;28;20653;-75
2022/08/23 00:40:16;;;;;;;0.40;0.40;;;14.90;31.50;;;;;;5031165;28;20253;-76
2022/08/23 00:48:56;;;;;;;0.50;0.50;;;14.90;25.00;;;;;;5030926;28;20222;-76
2022/08/23 00:51:28;;;;;;;0.40;0.40;;;14.80;35.50;;;;;;5017344;28;20180;-76
2022/08/23 00:53:57;;;;;;;0.50;0.50;;;15.00;50.70;;;;;;5029230;28;20234;-75
2022/08/23 00:56:25;;;;;;;0.50;0.50;;;14.60;81.90;;;;;;5031567;28;20180;-75
2022/08/23 00:58:51;;;;;;;0.40;0.40;;;14.70;55.60;;;;;;5030978;28;20283;-75
2022/08/23 01:01:17;;;;;;;0.47;0.47;;;14.70;45.30;;;;;;5030899;28;20231;-74
2022/08/23 01:03:48;;;;;;;0.40;0.40;;;14.50;67.00;;;;;;5028550;28;20677;-74
2022/08/23 01:06:45;;;;;;;0.50;0.50;;;14.50;64.00;;;;;;5031319;28;20252;-74
2022/08/23 01:09:14;;;;;;;0.43;0.43;;;14.40;97.90;;;;;;5002131;28;20575;-75
2022/08/23 01:11:47;;;;;;;0.40;0.40;;;14.50;83.30;;;;;;5031360;28;20218;-75
2022/08/23 01:14:20;;;;;;;0.40;0.40;;;14.50;87.50;;;;;;5028717;28;20199;-74
2022/08/23 01:17:02;;;;;;;0.43;0.43;;;14.40;99.90;;;;;;5031473;28;20180;-75
2022/08/23 01:19:47;;;;;;;0.50;0.50;;;14.40;90.50;;;;;;5030596;28;20219;-75
2022/08/23 01:22:24;;;;;;;0.50;0.50;;;14.30;99.90;;;;;;5031373;28;20263;-75
2022/08/23 01:24:50;;;;;;;0.50;0.50;;;14.40;93.80;;;;;;5031262;28;20270;-75
2022/08/23 01:27:16;;;;;;;0.33;0.33;;;14.40;83.20;;;;;;5031198;28;20176;-75
2022/08/23 01:29:41;;;;;;;0.43;0.43;;;14.30;66.90;;;;;;5030422;28;20339;-75
2022/08/23 01:32:08;;;;;;;0.40;0.40;;;14.20;90.10;;;;;;5031216;28;20179;-75
2022/08/23 01:34:35;;;;;;;0.40;0.40;;;14.20;99.90;;;;;;5029018;28;20576;-75
2022/08/23 01:37:04;;;;;;;0.53;0.53;;;14.10;99.90;;;;;;5030973;28;20218;-75
2022/08/23 01:39:30;;;;;;;0.40;0.40;;;14.20;95.60;;;;;;5030366;28;20216;-75
2022/08/23 01:41:56;;;;;;;0.30;0.30;;;14.10;99.90;;;;;;5029185;28;20244;-75
2022/08/23 01:44:22;;;;;;;0.40;0.40;;;14.10;99.90;;;;;;5028920;28;20195;-75
2022/08/23 01:46:48;;;;;;;0.40;0.40;;;14.10;99.90;;;;;;5033206;28;20274;-75
2022/08/23 01:49:14;;;;;;;0.50;0.50;;;14.20;88.60;;;;;;5034500;28;20302;-75
2022/08/23 01:51:41;;;;;;;0.50;0.50;;;14.10;67.50;;;;;;5034238;28;20176;-75
2022/08/23 01:54:06;;;;;;;0.40;0.40;;;14.00;37.90;;;;;;5032356;28;20223;-75
2022/08/23 01:56:33;;;;;;;0.40;0.40;;;14.00;32.80;;;;;;5034608;28;20179;-75
2022/08/23 01:58:59;;;;;;;0.43;0.43;;;14.00;43.90;;;;;;5034203;28;20215;-75
2022/08/23 02:01:25;;;;;;;0.30;0.30;;;14.00;42.30;;;;;;5034777;28;20176;-75
2022/08/23 02:03:50;;;;;;;0.43;0.43;;;14.00;39.20;;;;;;5032764;28;20207;-75
2022/08/23 02:06:17;;;;;;;0.30;0.30;;;13.80;90.90;;;;;;5034409;28;20180;-75
2022/08/23 02:09:02;;;;;;;0.43;0.43;;;13.80;99.90;;;;;;5034484;28;20664;-75
2022/08/23 02:11:34;;;;;;;0.50;0.50;;;13.50;99.90;;;;;;5034505;28;20187;-75
2022/08/23 02:14:02;;;;;;;0.40;0.40;;;13.60;99.90;;;;;;5032293;28;20195;-75
2022/08/23 02:16:50;;;;;;;0.30;0.30;;;13.70;99.90;;;;;;5034250;28;20306;-75
2022/08/23 02:19:16;;;;;;;0.30;0.30;;;13.70;99.90;;;;;;5030616;28;20215;-75
2022/08/23 02:21:42;;;;;;;0.40;0.40;;;13.70;99.90;;;;;;5034320;28;20518;-75
2022/08/23 02:24:22;;;;;;;0.30;0.30;;;13.70;99.90;;;;;;5032321;28;20553;-75
2022/08/23 02:26:50;;;;;;;0.50;0.50;;;13.70;99.90;;;;;;5034169;28;20176;-75
2022/08/23 02:29:17;;;;;;;0.33;0.33;;;13.70;99.90;;;;;;5034030;28;20175;-75
2022/08/23 02:31:43;;;;;;;0.50;0.50;;;13.70;99.90;;;;;;5033874;28;20175;-75
2022/08/23 02:34:12;;;;;;;0.30;0.30;;;13.70;99.90;;;;;;5032539;28;20238;-75
2022/08/23 02:36:39;;;;;;;0.40;0.40;;;13.60;99.90;;;;;;5034034;28;20179;-75
2022/08/23 02:39:05;;;;;;;0.40;0.40;;;13.60;99.90;;;;;;5033664;28;20293;-75
2022/08/23 02:41:32;;;;;;;0.40;0.40;;;13.60;94.80;;;;;;5034103;28;20172;-75
2022/08/23 02:43:57;;;;;;;0.40;0.40;;;13.60;96.90;;;;;;5031814;28;20206;-75
2022/08/23 02:46:23;;;;;;;0.50;0.50;;;13.40;99.90;;;;;;5034665;28;20174;-74
2022/08/23 02:48:49;;;;;;;0.40;0.40;;;13.50;99.90;;;;;;5034146;28;20280;-74
2022/08/23 02:51:16;;;;;;;0.40;0.40;;;13.40;99.90;;;;;;5033487;28;20275;-75
2022/08/23 02:53:42;;;;;;;0.50;0.50;;;13.40;99.90;;;;;;5032341;28;20203;-75
2022/08/23 02:56:09;;;;;;;0.40;0.40;;;13.40;99.90;;;;;;5033501;28;20703;-75
2022/08/23 02:58:35;;;;;;;0.50;0.50;;;13.40;99.90;;;;;;5033707;28;20266;-75
2022/08/23 03:01:01;;;;;;;0.60;0.60;;;13.40;99.90;;;;;;5033575;28;20183;-74
2022/08/23 03:03:28;;;;;;;0.50;0.50;;;13.30;99.90;;;;;;5032111;28;20215;-74
2022/08/23 03:05:53;;;;;;;0.50;0.50;;;13.40;99.90;;;;;;5033536;28;20184;-75
2022/08/23 03:08:21;;;;;;;0.50;0.50;;;13.40;99.90;;;;;;5017434;28;20183;-74
2022/08/23 03:10:49;;;;;;;0.50;0.50;;;13.20;99.90;;;;;;5033713;28;20186;-75
2022/08/23 03:13:15;;;;;;;0.40;0.40;;;13.20;99.90;;;;;;5032564;28;20200;-75
2022/08/23 03:15:40;;;;;;;0.40;0.40;;;13.20;99.90;;;;;;5034258;28;20302;-74
2022/08/23 03:18:07;;;;;;;0.50;0.50;;;13.00;99.90;;;;;;5034300;28;20306;-75
2022/08/23 03:20:33;;;;;;;0.50;0.50;;;13.10;99.90;;;;;;5033862;28;20665;-74
2022/08/23 03:22:59;;;;;;;0.40;0.40;;;13.10;99.90;;;;;;5032835;28;20226;-75
2022/08/23 03:25:27;;;;;;;0.50;0.50;;;13.10;99.90;;;;;;5034453;28;20183;-75
2022/08/23 03:27:53;;;;;;;0.53;0.53;;;13.10;99.90;;;;;;5034391;28;20183;-75
2022/08/23 03:30:18;;;;;;;0.60;0.60;;;13.10;99.90;;;;;;5033685;28;20176;-75
2022/08/23 03:32:44;;;;;;;0.50;0.50;;;13.00;99.90;;;;;;5033048;28;20604;-75
2022/08/23 03:35:09;;;;;;;0.40;0.40;;;13.00;99.90;;;;;;5034621;28;20176;-76
2022/08/23 03:37:35;;;;;;;0.40;0.40;;;13.00;99.90;;;;;;5034039;28;20234;-75
2022/08/23 03:40:03;;;;;;;0.50;0.50;;;12.70;99.90;;;;;;5033489;28;20588;-75
2022/08/23 03:42:29;;;;;;;0.70;0.70;;;12.90;99.90;;;;;;5031798;28;20175;-76
2022/08/23 03:44:54;;;;;;;0.50;0.50;;;12.90;99.90;;;;;;5033723;28;20229;-75
2022/08/23 03:47:20;;;;;;;0.40;0.40;;;12.90;99.90;;;;;;5032941;28;20203;-75
2022/08/23 03:49:45;;;;;;;0.40;0.40;;;12.80;99.90;;;;;;5052132;22;20238;-79
2022/08/23 03:52:12;;;;;;;0.40;0.40;;;12.90;99.90;;;;;;5023546;28;20181;-80
2022/08/23 03:54:37;;;;;;;0.50;0.50;;;12.90;99.90;;;;;;5004677;28;20275;-80
2022/08/23 03:57:08;;;;;;;0.40;0.40;;;12.90;99.90;;;;;;5006637;28;20673;-80
2022/08/23 03:59:36;;;;;;;0.40;0.40;;;12.90;99.90;;;;;;5006008;28;20239;-80
2022/08/23 04:02:02;;;;;;;0.40;0.40;;;12.90;99.90;;;;;;5005397;28;20201;-79
2022/08/23 04:04:28;;;;;;;0.50;0.50;;;12.90;99.90;;;;;;4999657;28;20201;-79
2022/08/23 04:06:55;;;;;;;0.40;0.40;;;12.90;99.90;;;;;;4998126;28;20229;-78
2022/08/23 04:09:21;;;;;;;0.50;0.50;;;12.90;99.90;;;;;;4994305;28;20541;-78
2022/08/23 04:11:47;;;;;;;0.50;0.50;;;12.80;99.90;;;;;;4995504;28;20177;-78
2022/08/23 04:14:13;;;;;;;0.50;0.50;;;12.80;99.90;;;;;;4993992;28;20295;-78
2022/08/23 04:16:40;;;;;;;0.40;0.40;;;12.80;99.90;;;;;;4978234;28;20209;-78
2022/08/23 04:19:08;;;;;;;0.40;0.40;;;12.80;99.90;;;;;;4994574;28;20209;-78
2022/08/23 04:21:36;;;;;;;0.50;0.50;;;12.80;99.90;;;;;;4993252;28;20246;-78
2022/08/23 04:24:02;;;;;;;0.50;0.50;;;12.70;99.90;;;;;;4999514;28;20610;-79
2022/08/23 04:26:28;;;;;;;0.50;0.50;;;12.70;99.90;;;;;;4997278;28;20182;-79
2022/08/23 04:28:53;;;;;;;0.50;0.50;;;12.70;99.90;;;;;;4999105;28;20674;-79
2022/08/23 04:31:20;;;;;;;0.40;0.40;;;12.70;99.90;;;;;;5000209;28;20196;-78
2022/08/23 04:33:46;;;;;;;0.40;0.40;;;12.60;99.90;;;;;;4997828;28;20205;-78
2022/08/23 04:36:12;;;;;;;0.50;0.50;;;12.70;99.90;;;;;;4999872;28;20181;-78
2022/08/23 04:38:37;;;;;;;0.40;0.40;;;12.60;99.90;;;;;;4999846;28;20271;-78
2022/08/23 04:43:47;;;;;;;0.50;0.50;;;12.40;99.90;;;;;;5001828;28;20240;-79
2022/08/23 04:46:14;;;;;;;0.40;0.40;;;12.60;99.90;;;;;;5000807;28;20173;-79
2022/08/23 04:48:41;;;;;;;0.60;0.60;;;12.70;99.90;;;;;;5000488;28;20188;-78
2022/08/23 04:51:07;;;;;;;0.40;0.40;;;12.70;99.90;;;;;;5000725;28;20177;-79
2022/08/23 04:53:34;;;;;;;0.50;0.50;;;12.70;99.90;;;;;;4999418;28;20293;-79
2022/08/23 04:56:01;;;;;;;0.50;0.50;;;12.60;99.90;;;;;;4999813;28;20185;-78
2022/08/23 04:58:27;;;;;;;0.40;0.40;;;12.70;99.90;;;;;;5002467;28;20234;-79
2022/08/23 05:00:53;;;;;;;0.40;0.40;;;12.90;99.90;;;;;;4999386;28;20638;-79
2022/08/23 05:03:19;;;;;;;0.50;0.50;;;12.70;99.90;;;;;;4995969;28;20236;-78
2022/08/23 05:05:44;;;;;;;0.50;0.50;;;12.80;99.90;;;;;;4999885;28;20181;-78
2022/08/23 05:08:10;;;;;;;0.50;0.50;;;12.90;99.90;;;;;;4999355;28;20204;-78
2022/08/23 05:10:36;;;;;;;0.50;0.50;;;13.00;99.90;;;;;;4998720;28;20177;-79
2022/08/23 05:13:01;;;;;;;0.50;0.50;;;12.80;99.90;;;;;;4995233;28;20197;-80
2022/08/23 05:15:27;;;;;;;0.50;0.50;;;12.60;99.90;;;;;;4998478;28;20177;-80
2022/08/23 05:17:52;;;;;;;0.40;0.40;;;12.50;99.90;;;;;;5012848;28;20189;-80
2022/08/23 05:20:18;;;;;;;0.43;0.43;;;12.80;99.90;;;;;;5016269;28;20165;-80
2022/08/23 05:22:43;;;;;;;0.50;0.50;;;12.80;99.90;;;;;;5000769;28;20220;-80
2022/08/23 05:25:09;;;;;;;0.40;0.40;;;13.10;99.90;;;;;;4999397;28;20195;-80
2022/08/23 05:27:35;;;;;;;0.50;0.50;;;13.40;99.90;;;;;;4993761;28;20571;-79
2022/08/23 05:30:01;;;;;;;0.40;0.40;;;13.70;99.90;;;;;;4996745;28;20243;-79
2022/08/23 05:32:27;;;;;;;0.50;0.50;;;13.70;99.90;;;;;;4999775;28;20185;-80
2022/08/23 05:34:52;;;;;;;0.40;0.40;;;13.90;99.30;;;;;;5002483;28;20185;-78
2022/08/23 05:37:18;;;;;;;0.40;0.40;;;13.70;99.90;;;;;;5000599;28;20177;-78
2022/08/23 05:39:43;;;;;;;0.40;0.40;;;13.40;99.90;;;;;;4999751;28;20223;-79
2022/08/23 05:42:11;;;;;;;0.40;0.40;;;13.50;99.90;;;;;;5001045;28;20180;-79
2022/08/23 05:44:37;;;;;;;0.43;0.43;;;13.60;99.90;;;;;;5002305;28;20208;-79
2022/08/23 05:47:06;;;;;;;0.50;0.50;;;13.90;99.90;;;;;;5000964;28;20642;-78
2022/08/23 05:49:31;;;;;;;0.40;0.40;;;14.00;99.90;;;;;;4999792;28;20201;-79
2022/08/23 05:51:57;;;;;;;0.30;0.30;;;13.90;99.90;;;;;;5000695;28;20212;-78
2022/08/23 05:54:22;;;;;;;0.43;0.43;;;13.90;99.90;;;;;;5007574;28;20192;-78
2022/08/23 05:56:48;;;;;;;0.40;0.40;;;14.20;99.90;;;;;;5007450;28;20178;-77
2022/08/23 05:59:15;;;;;;;0.40;0.40;;;14.30;99.90;;;;;;5003875;28;20209;-78
2022/08/23 06:01:42;;;;;;;0.40;0.40;;;14.30;99.90;;;;;;4999197;28;20203;-78
2022/08/23 06:04:11;;;;;;;0.30;0.30;;;14.60;96.70;;;;;;4999175;28;20200;-77
2022/08/23 06:06:38;;;;;;;0.40;0.40;;;14.70;76.40;;;;;;4999730;28;20262;-78
2022/08/23 06:09:06;;;;;;;0.50;0.50;;;14.40;59.40;;;;;;4999179;28;20213;-77
2022/08/23 06:11:32;;;;;;;0.40;0.40;;;14.40;99.90;;;;;;4999252;28;20185;-79
2022/08/23 06:14:01;;;;;;;0.50;0.50;;;14.70;99.90;;;;;;4992424;28;20615;-77
2022/08/23 06:16:29;;;;;;;0.40;0.40;;;14.90;44.20;;;;;;4992496;28;20177;-77
2022/08/23 06:18:56;;;;;;;0.40;0.40;;;15.20;40.80;;;;;;4991973;28;20231;-76
2022/08/23 06:21:23;;;;;;;0.50;0.50;;;15.00;28.10;;;;;;4992448;28;20216;-77
2022/08/23 06:23:49;;;;;;;0.40;0.40;;;15.00;51.80;;;;;;4995030;28;20208;-79
2022/08/23 06:26:30;;;;;;;0.30;0.30;;;15.20;50.50;;;;;;4998903;28;20232;-79
2022/08/23 06:28:57;;;;;;;0.30;0.30;;;15.50;1.00;;;;;;4998690;28;20208;-80
2022/08/23 06:34:12;;;;;;;0.47;0.47;;;15.70;1.00;;;;;;5001681;28;20204;-79
2022/08/23 06:36:38;;;;;;;0.40;0.40;;;16.20;1.00;;;;;;5001834;28;20264;-79
2022/08/23 06:39:06;;;;;;;0.30;0.30;;;16.30;1.00;;;;;;5001594;28;20255;-78
2022/08/23 06:41:31;;;;;;;0.30;0.30;;;16.40;1.00;;;;;;5002624;28;20178;-80
2022/08/23 06:43:57;;;;;;;0.40;0.40;;;16.90;1.00;;;;;;5000825;28;20224;-78
2022/08/23 06:46:25;;;;;;;0.40;0.40;;;16.90;1.00;;;;;;5000245;28;20185;-79
2022/08/23 06:48:54;;;;;;;0.43;0.43;;;17.00;1.00;;;;;;5001697;28;20189;-81
2022/08/23 06:51:30;;;;;;;0.40;0.40;;;17.00;1.00;;;;;;5002864;28;20208;-79
2022/08/23 06:53:58;;;;;;;0.40;0.40;;;17.20;1.00;;;;;;5001749;28;20201;-79
2022/08/23 06:56:26;;;;;;;0.30;0.30;;;17.50;99.90;;;;;;5001957;28;20205;-80
2022/08/23 06:58:52;;;;;;;0.30;0.30;;;17.80;99.90;;;;;;5001101;28;20682;-81
2022/08/23 07:01:44;;;;;;;0.40;0.40;;;18.20;1.00;;;;;;5001604;28;20248;-79
2022/08/23 07:04:12;;;;;;;0.40;0.40;;;18.20;1.00;;;;;;4981216;28;20284;-78
2022/08/23 07:06:38;;;;;;;0.40;0.40;;;18.10;99.90;;;;;;4979820;28;20197;-78
2022/08/23 07:09:04;;;;;;;0.40;0.40;;;18.20;56.70;;;;;;4980461;28;20181;-78
2022/08/23 07:11:31;;;;;;;0.37;0.37;;;18.20;28.00;;;;;;4979461;28;20592;-79
2022/08/23 07:14:02;;;;;;;0.30;0.30;;;18.10;1.00;;;;;;4979437;28;20236;-78
2022/08/23 07:16:49;;;;;;;0.40;0.40;;;18.50;1.00;;;;;;4978580;28;20225;-79
2022/08/23 07:19:17;;;;;;;0.33;0.33;;;18.80;1.00;;;;;;4977830;28;20631;-79
2022/08/23 07:21:44;;;;;;;0.37;0.37;;;19.60;99.90;;;;;;4978960;28;20178;-78
2022/08/23 07:24:10;;;;;;;0.30;0.30;;;20.40;99.90;;;;;;4979131;28;20206;-78
2022/08/23 07:26:35;;;;;;;0.30;0.30;;;21.30;1.00;;;;;;4979261;28;20189;-78
2022/08/23 07:29:06;;;;;;;0.50;0.50;;;21.80;1.00;;;;;;4979095;28;20185;-78
2022/08/23 07:31:34;;;;;;;0.30;0.30;;;22.40;1.00;;;;;;4980599;28;20181;-80
2022/08/23 07:34:02;;;;;;;0.23;0.23;;;23.00;1.00;;;;;;4980039;28;20252;-78
2022/08/23 07:36:30;;;;;;;0.40;0.40;;;22.60;1.00;;;;;;4980008;28;20241;-79
2022/08/23 07:38:56;;;;;;;0.30;0.30;;;22.20;1.00;;;;;;4987789;28;20287;-81
2022/08/23 07:41:24;;;;;;;0.40;0.40;;;22.10;1.00;;;;;;5002633;28;20205;-82
2022/08/23 07:43:50;;;;;;;0.37;0.37;;;21.90;1.00;;;;;;4996134;28;20205;-82
2022/08/23 07:46:15;;;;;;;0.30;0.30;;;21.60;1.00;;;;;;5003986;28;20177;-84
2022/08/23 07:48:41;;;;;;;0.40;0.40;;;21.70;1.00;;;;;;5001239;28;20187;-82
2022/08/23 07:51:10;;;;;;;0.37;0.37;;;21.80;1.00;;;;;;5000501;28;20227;-82
2022/08/23 07:53:36;;;;;;;0.30;0.30;;;22.20;1.00;;;;;;5002035;28;20193;-83
2022/08/23 07:56:07;;;;;;;0.30;0.30;;;22.80;1.00;;;;;;5002386;28;20185;-82
2022/08/23 07:58:33;;;;;;;0.33;0.33;;;23.30;1.00;;;;;;5002103;28;20204;-82
2022/08/23 08:01:29;;;;;;;0.30;0.30;;;23.90;1.00;;;;;;5002368;28;20211;-82
2022/08/23 08:03:57;;;;;;;0.40;0.40;;;24.60;1.00;;;;;;4985775;28;20242;-80
2022/08/23 08:06:30;;;;;;;0.57;0.57;;;24.30;1.00;;;;;;5011927;28;20173;-79
2022/08/23 08:08:56;;;;;;;0.53;0.53;;;24.60;1.00;;;;;;5012970;28;20192;-83
2022/08/23 08:11:26;;;;;;;0.50;0.50;;;24.40;1.00;;;;;;5012381;28;20206;-80
2022/08/23 08:13:52;;;;;;;0.50;0.50;;;24.30;1.00;;;;;;5011782;28;20193;-81
2022/08/23 08:16:31;;;;;;;0.60;0.60;;;24.80;1.00;;;;;;5001058;28;20189;-82
2022/08/23 08:18:59;;;;;;;0.53;0.53;;;25.20;1.00;;;;;;4996911;28;20204;-81
2022/08/23 08:21:25;;;;;;;0.50;0.50;;;24.70;1.00;;;;;;4997336;28;20187;-81
2022/08/23 08:23:52;;;;;;;0.60;0.60;;;25.10;1.00;;;;;;4997012;28;20654;-81
2022/08/23 08:26:18;;;;;;;0.57;0.57;;;25.10;1.00;;;;;;4997653;28;20661;-79
2022/08/23 08:28:44;;;;;;;0.68;0.68;;;25.20;1.00;;;;;;4997468;28;20288;-81
2022/08/23 08:31:11;;;;;;;0.50;0.50;;;25.30;1.00;;;;;;4997265;28;20709;-80
2022/08/23 08:33:37;;;;;;;0.60;0.60;;;25.20;1.00;;;;;;4997334;28;20686;-80
2022/08/23 08:36:03;;;;;;;0.52;0.52;;;25.40;1.00;;;;;;4997195;28;20324;-79
2022/08/23 08:38:29;;;;;;;0.60;0.60;;;25.90;1.00;;;;;;4998169;28;20331;-80
2022/08/23 08:41:16;;;;;;;0.52;0.52;;;25.60;1.00;;;;;;4996097;28;20180;-78
2022/08/23 08:44:01;;;;;;;0.50;0.50;;;25.60;1.00;;;;;;4997166;28;20765;-80
2022/08/23 08:46:44;;;;;;;0.40;0.40;;;25.80;1.00;;;;;;4997483;28;20277;-78
2022/08/23 08:49:15;;;;;;;0.45;0.45;;;26.50;1.00;;;;;;4996217;28;20666;-78
2022/08/23 08:51:45;;;;;;;0.47;0.47;;;27.00;1.00;;;;;;4997932;28;20188;-77
2022/08/23 08:54:15;;;;;;;0.40;0.40;;;27.50;1.00;;;;;;4996836;28;20196;-77
2022/08/23 08:56:42;;;;;;;0.40;0.40;;;27.40;1.00;;;;;;5000083;28;20650;-78
2022/08/23 08:59:17;;;;;;;0.45;0.45;;;27.90;1.00;;;;;;5000480;28;20251;-79
2022/08/23 09:01:43;;;;;;;0.30;0.30;;;28.00;1.00;;;;;;4999244;28;20472;-78
2022/08/23 09:04:09;;;;;;;0.40;0.40;;;27.90;1.00;;;;;;4999913;28;20408;-78
2022/08/23 09:06:58;;;;;;;0.35;0.35;;;27.90;1.00;;;;;;5000396;28;20173;-78
2022/08/23 09:09:54;;;;;;;0.10;0.10;;;28.40;1.00;;;;;;4997737;28;20181;-78
2022/08/23 09:12:48;;;;;;;0.20;0.20;;;28.00;1.00;;;;;;4999631;28;20182;-77
2022/08/23 09:15:29;;;;;;;0.10;0.10;;;28.40;1.00;;;;;;4996628;28;20231;-77
2022/08/23 09:18:04;;;;;;;0.30;0.30;;;28.30;1.00;;;;;;4997200;28;20177;-78
2022/08/23 09:20:30;;;;;;;0.30;0.30;;;28.30;1.00;;;;;;4997549;28;20656;-78
2022/08/23 09:23:06;;;;;;;0.20;0.20;;;28.20;1.00;;;;;;5004342;28;20199;-78
2022/08/23 09:25:32;;;;;;;0.20;0.20;;;29.10;1.00;;;;;;5002311;28;20196;-79
2022/08/23 09:27:58;;;;;;;0.10;0.10;;;29.00;1.00;;;;;;4999460;28;20186;-77
2022/08/23 09:30:48;;;;;;;0.10;0.10;;;28.60;1.00;;;;;;5001301;28;20178;-78
2022/08/23 09:33:19;;;;;;;0.10;0.10;;;29.10;1.00;;;;;;5000409;28;20193;-78
2022/08/23 09:36:01;;;;;;;0.13;0.13;;;29.70;1.00;;;;;;4997799;28;20185;-78
2022/08/23 09:38:28;;;;;;;0.17;0.17;;;29.70;1.00;;;;;;4998816;28;20316;-78
2022/08/23 09:40:55;;;;;;;0.05;0.05;;;30.00;1.00;;;;;;4997481;28;20225;-77
2022/08/23 09:43:25;;;;;;;0.10;0.10;;;29.80;1.00;;;;;;4997821;28;20207;-77
2022/08/23 09:45:50;;;;;;;0.20;0.20;;;29.80;1.00;;;;;;4997762;28;20188;-77
2022/08/23 09:48:38;;;;;;;0.20;0.20;;;29.90;1.00;;;;;;4996714;28;20179;-77
2022/08/23 09:51:25;;;;;;;0.20;0.20;;;29.80;1.00;;;;;;4998570;28;20192;-77
2022/08/23 09:54:16;;;;;;;0.28;0.28;;;30.20;1.00;;;;;;4997083;28;20259;-78
2022/08/23 09:56:49;;;;;;;0.20;0.20;;;29.90;1.00;;;;;;4998611;28;20170;-78
2022/08/23 09:59:26;;;;;;;0.10;0.10;;;30.40;1.00;;;;;;4998451;28;20223;-78
2022/08/23 10:01:57;;;;;;;0.22;0.22;;;31.00;1.00;;;;;;4997543;28;20199;-77
2022/08/23 10:04:43;;;;;;;0.17;0.17;;;30.70;1.00;;;;;;4996275;28;20189;-79
2022/08/23 10:07:24;;;;;;;0.10;0.10;;;30.70;1.00;;;;;;4994318;28;20545;-77
2022/08/23 10:09:49;;;;;;;0.15;0.15;;;31.20;1.00;;;;;;4997046;28;20184;-75
2022/08/23 10:12:15;;;;;;;0.10;0.10;;;31.10;1.00;;;;;;5000941;28;20174;-77
2022/08/23 10:14:41;;;;;;;0.20;0.20;;;31.40;1.00;;;;;;5001957;28;20188;-78
2022/08/23 10:17:36;;;;;;;0.20;0.20;;;30.40;1.00;;;;;;5004301;28;20172;-78
2022/08/23 10:20:23;;;;;;;0.10;0.10;;;31.10;1.00;;;;;;4999226;28;20218;-79
2022/08/23 10:23:03;;;;;;;0.10;0.10;;;31.20;1.00;;;;;;4997828;28;20205;-79
2022/08/23 10:25:38;;;;;;;0.20;0.20;;;30.90;1.00;;;;;;4997435;28;20173;-79
2022/08/23 10:31:41;;;;;;;0.30;0.30;;;30.90;1.00;;;;;;4998933;28;20180;-79
2022/08/23 10:34:39;;;;;;;0.38;0.38;;;30.70;1.00;;;;;;4999003;28;20690;-79
2022/08/23 10:37:10;;;;;;;0.50;0.50;;;30.90;1.00;;;;;;4998532;28;20181;-79
2022/08/23 10:39:48;;;;;;;0.28;0.28;;;31.50;1.00;;;;;;4998698;28;20245;-80
2022/08/23 10:42:34;;;;;;;0.43;0.43;;;31.40;1.00;;;;;;4999296;28;20200;-80
2022/08/23 10:45:08;;;;;;;0.32;0.32;;;31.00;1.00;;;;;;4999020;28;20181;-81
2022/08/23 10:47:37;;;;;;;0.22;0.22;;;31.40;1.00;;;;;;4998152;28;20264;-81
2022/08/23 10:50:13;;;;;;;0.20;0.20;;;31.90;1.00;;;;;;4997071;28;20574;-80
2022/08/23 10:52:50;;;;;;;0.20;0.20;;;32.10;1.00;;;;;;4998386;28;20243;-79
2022/08/23 10:55:34;;;;;;;0.20;0.20;;;31.70;1.00;;;;;;4997391;28;20181;-78
2022/08/23 10:58:04;;;;;;;0.35;0.35;;;32.20;1.00;;;;;;4997757;28;20283;-80
2022/08/23 11:00:31;;;;;;;0.38;0.38;;;32.70;1.00;;;;;;4995854;28;20671;-81
2022/08/23 11:03:10;;;;;;;0.20;0.20;;;32.70;1.00;;;;;;4995953;28;20193;-77
2022/08/23 11:05:37;;;;;;;0.28;0.28;;;31.60;1.00;;;;;;4996048;28;20177;-77
2022/08/23 11:08:28;;;;;;;0.20;0.20;;;32.10;1.00;;;;;;4995970;28;20193;-79
2022/08/23 11:10:54;;;;;;;0.40;0.40;;;32.10;1.00;;;;;;4996264;28;20283;-79
2022/08/23 11:13:23;;;;;;;0.47;0.47;;;31.50;1.00;;;;;;4978447;28;20264;-79
2022/08/23 11:15:59;;;;;;;0.50;0.50;;;30.70;1.00;;;;;;4996751;28;20181;-79
2022/08/23 11:18:28;;;;;;;0.60;0.60;;;30.30;1.00;;;;;;5000312;28;20653;-79
2022/08/23 11:21:16;;;;;;;0.55;0.55;;;31.20;1.00;;;;;;4999567;28;20251;-80
2022/08/23 11:23:45;;;;;;;0.52;0.52;;;31.00;1.00;;;;;;4996673;28;20212;-77
2022/08/23 11:26:38;;;;;;;0.47;0.47;;;31.60;1.00;;;;;;4998293;28;20173;-80
2022/08/23 11:29:09;;;;;;;0.57;0.57;;;30.90;1.00;;;;;;4996798;28;20296;-79
2022/08/23 11:31:49;;;;;;;0.50;0.50;;;31.30;1.00;;;;;;4997809;28;20181;-79
2022/08/23 11:34:24;;;;;;;0.60;0.60;;;31.60;1.00;;;;;;4996375;28;20662;-79
2022/08/23 11:37:17;;;;;;;0.60;0.60;;;30.80;1.00;;;;;;4997037;28;20188;-80
2022/08/23 11:39:58;;;;;;;0.60;0.60;;;30.00;1.00;;;;;;4996889;28;20212;-79
2022/08/23 11:42:28;;;;;;;0.60;0.60;;;30.60;1.00;;;;;;4997131;28;20177;-78
2022/08/23 11:44:54;;;;;;;0.60;0.60;;;31.20;1.00;;;;;;4990647;28;20609;-79
2022/08/23 11:47:40;;;;;;;0.60;0.60;;;30.80;1.00;;;;;;4992209;28;20267;-78
2022/08/23 11:50:43;;;;;;;0.60;0.60;;;29.90;1.00;;;;;;4992455;28;20197;-79
2022/08/23 11:53:24;;;;;;;0.60;0.60;;;30.20;1.00;;;;;;4995136;28;20220;-79
2022/08/23 11:56:22;;;;;;;0.53;0.53;;;29.80;1.00;;;;;;4995880;28;20211;-80
2022/08/23 11:58:59;;;;;;;0.50;0.50;;;30.00;1.00;;;;;;4993671;28;20213;-79
2022/08/23 12:01:37;;;;;;;0.50;0.50;;;30.50;1.00;;;;;;4996010;28;20192;-81
2022/08/23 12:04:26;;;;;;;0.47;0.47;;;30.60;1.00;;;;;;4994067;28;20196;-78
2022/08/23 12:07:00;;;;;;;0.60;0.60;;;30.20;1.00;;;;;;4982429;28;20243;-78
2022/08/23 12:09:25;;;;;;;0.60;0.60;;;30.20;1.00;;;;;;4992491;28;20193;-79
2022/08/23 12:11:54;;;;;;;0.63;0.63;;;30.20;1.00;;;;;;4992489;28;20273;-80
2022/08/23 12:14:41;;;;;;;0.50;0.50;;;30.30;1.00;;;;;;4993395;28;20219;-82
2022/08/23 12:17:24;;;;;;;0.50;0.50;;;30.80;1.00;;;;;;4992898;28;20181;-78
2022/08/23 12:20:04;;;;;;;0.50;0.50;;;31.00;1.00;;;;;;4992881;28;20216;-90
2022/08/23 12:22:53;;;;;;;0.50;0.50;;;30.20;1.00;;;;;;4986710;28;20642;-79
2022/08/23 12:25:21;;;;;;;0.50;0.50;;;29.90;1.00;;;;;;4993788;28;20293;-79
2022/08/23 12:27:54;;;;;;;0.60;0.60;;;30.20;1.00;;;;;;4993521;28;20646;-78
2022/08/23 12:30:26;;;;;;;0.60;0.60;;;30.30;1.00;;;;;;4993214;28;20244;-78
2022/08/23 12:33:10;;;;;;;0.47;0.47;;;30.80;1.00;;;;;;4993438;28;20205;-77
2022/08/23 12:36:08;;;;;;;0.60;0.60;;;30.30;1.00;;;;;;4988804;28;20181;-77
2022/08/23 12:38:54;;;;;;;0.53;0.53;;;30.40;1.00;;;;;;4993673;28;20584;-76
2022/08/23 12:41:26;;;;;;;0.60;0.60;;;30.30;1.00;;;;;;4996558;28;20291;-78
2022/08/23 12:44:06;;;;;;;0.53;0.53;;;30.70;1.00;;;;;;5000881;28;20216;-77
2022/08/23 12:46:42;;;;;;;0.53;0.53;;;30.10;1.00;;;;;;4998910;28;20271;-77
2022/08/23 12:49:21;;;;;;;0.60;0.60;;;30.10;1.00;;;;;;4994683;28;20203;-77
2022/08/23 12:51:53;;;;;;;0.60;0.60;;;30.10;1.00;;;;;;4993700;28;20173;-77
2022/08/23 12:54:22;;;;;;;0.40;0.40;;;30.30;1.00;;;;;;4989646;28;20205;-77
2022/08/23 12:56:52;;;;;;;0.57;0.57;;;30.40;1.00;;;;;;4990867;28;20177;-76
2022/08/23 12:59:43;;;;;;;0.60;0.60;;;30.80;1.00;;;;;;4989503;28;20227;-76
2022/08/23 13:02:21;;;;;;;0.60;0.60;;;29.90;1.00;;;;;;4989830;28;20162;-75
2022/08/23 13:04:47;;;;;;;0.60;0.60;;;30.10;1.00;;;;;;4990676;28;20205;-76
2022/08/23 13:07:18;;;;;;;0.70;0.70;;;29.70;1.00;;;;;;4989711;28;20521;-75
2022/08/23 13:09:44;;;;;;;0.60;0.60;;;30.30;1.00;;;;;;4990004;28;20193;-76
2022/08/23 13:12:11;;;;;;;0.57;0.57;;;29.20;1.00;;;;;;4990079;28;20551;-75
2022/08/23 13:14:49;;;;;;;0.50;0.50;;;29.60;1.00;;;;;;4990341;28;20213;-76
2022/08/23 13:17:24;;;;;;;0.50;0.50;;;29.80;1.00;;;;;;4991970;28;20627;-77
2022/08/23 13:20:12;;;;;;;0.50;0.50;;;29.50;1.00;;;;;;4989789;28;20287;-77
2022/08/23 13:22:53;;;;;;;0.43;0.43;;;29.70;1.00;;;;;;4983858;28;20205;-76
2022/08/23 13:25:38;;;;;;;0.60;0.60;;;29.80;1.00;;;;;;4989964;28;20278;-76
2022/08/23 13:28:26;;;;;;;0.50;0.50;;;29.50;1.00;;;;;;4989733;28;20259;-76